sensor_id;sensor_type;location;lat;lon;timestamp;P1;durP1;ratioP1;P2;durP2;ratioP2
4174;SDS011;2101;48.290;14.382;2022-12-07T00:02:08;32.10;;;9.23;;
4174;SDS011;2101;48.290;14.382;2022-12-07T04:32:20;14.13;;;3.33;;
4174;SDS011;2101;48.290;14.382;2022-12-07T04:34:48;17.23;;;3.77;;
4174;SDS011;2101;48.290;14.382;2022-12-07T04:37:15;16.47;;;4.20;;
4174;SDS011;2101;48.290;14.382;2022-12-07T04:39:42;13.63;;;3.27;;
4174;SDS011;2101;48.290;14.382;2022-12-07T04:42:20;14.33;;;3.77;;
4174;SDS011;2101;48.290;14.382;2022-12-07T04:44:47;15.83;;;3.77;;
4174;SDS011;2101;48.290;14.382;2022-12-07T04:47:14;16.87;;;4.20;;
4174;SDS011;2101;48.290;14.382;2022-12-07T04:49:42;15.50;;;3.87;;
4174;SDS011;2101;48.290;14.382;2022-12-07T04:52:11;16.77;;;4.03;;
4174;SDS011;2101;48.290;14.382;2022-12-07T04:54:39;15.23;;;3.93;;
4174;SDS011;2101;48.290;14.382;2022-12-07T04:57:13;14.33;;;3.30;;
4174;SDS011;2101;48.290;14.382;2022-12-07T04:59:59;21.77;;;3.70;;
4174;SDS011;2101;48.290;14.382;2022-12-07T05:02:27;13.63;;;3.00;;
4174;SDS011;2101;48.290;14.382;2022-12-07T05:05:39;16.73;;;3.80;;
4174;SDS011;2101;48.290;14.382;2022-12-07T05:51:14;14.73;;;3.80;;
4174;SDS011;2101;48.290;14.382;2022-12-07T05:53:44;15.70;;;4.67;;
4174;SDS011;2101;48.290;14.382;2022-12-07T05:56:16;15.90;;;4.00;;
4174;SDS011;2101;48.290;14.382;2022-12-07T06:04:01;14.70;;;4.07;;
4174;SDS011;2101;48.290;14.382;2022-12-07T06:06:37;14.53;;;3.60;;
4174;SDS011;2101;48.290;14.382;2022-12-07T06:09:04;13.20;;;3.23;;
4174;SDS011;2101;48.290;14.382;2022-12-07T06:11:31;16.90;;;4.43;;
4174;SDS011;2101;48.290;14.382;2022-12-07T06:14:19;14.87;;;3.57;;
4174;SDS011;2101;48.290;14.382;2022-12-07T06:17:00;19.87;;;5.03;;
4174;SDS011;2101;48.290;14.382;2022-12-07T06:24:45;17.10;;;4.10;;
4174;SDS011;2101;48.290;14.382;2022-12-07T06:27:29;15.67;;;3.77;;
4174;SDS011;2101;48.290;14.382;2022-12-07T06:29:58;14.50;;;3.40;;
4174;SDS011;2101;48.290;14.382;2022-12-07T06:32:24;15.83;;;4.17;;
4174;SDS011;2101;48.290;14.382;2022-12-07T06:34:50;19.57;;;5.27;;
4174;SDS011;2101;48.290;14.382;2022-12-07T06:37:17;17.77;;;4.97;;
4174;SDS011;2101;48.290;14.382;2022-12-07T06:39:43;16.40;;;5.13;;
4174;SDS011;2101;48.290;14.382;2022-12-07T06:42:10;18.30;;;4.80;;
4174;SDS011;2101;48.290;14.382;2022-12-07T06:44:37;19.27;;;5.77;;
4174;SDS011;2101;48.290;14.382;2022-12-07T06:47:03;19.53;;;5.53;;
4174;SDS011;2101;48.290;14.382;2022-12-07T06:49:29;18.97;;;5.97;;
4174;SDS011;2101;48.290;14.382;2022-12-07T06:51:56;19.40;;;5.97;;
4174;SDS011;2101;48.290;14.382;2022-12-07T06:54:22;18.77;;;6.33;;
4174;SDS011;2101;48.290;14.382;2022-12-07T06:56:48;22.23;;;6.70;;
4174;SDS011;2101;48.290;14.382;2022-12-07T06:59:14;19.87;;;5.67;;
4174;SDS011;2101;48.290;14.382;2022-12-07T07:01:41;22.20;;;6.40;;
4174;SDS011;2101;48.290;14.382;2022-12-07T07:04:07;23.70;;;7.07;;
4174;SDS011;2101;48.290;14.382;2022-12-07T07:06:33;21.43;;;6.30;;
4174;SDS011;2101;48.290;14.382;2022-12-07T07:08:59;24.70;;;8.63;;
4174;SDS011;2101;48.290;14.382;2022-12-07T07:11:25;24.37;;;7.60;;
4174;SDS011;2101;48.290;14.382;2022-12-07T07:13:52;20.90;;;5.77;;
4174;SDS011;2101;48.290;14.382;2022-12-07T07:16:18;21.93;;;7.23;;
4174;SDS011;2101;48.290;14.382;2022-12-07T07:18:44;23.33;;;6.50;;
4174;SDS011;2101;48.290;14.382;2022-12-07T07:21:11;21.37;;;6.70;;
4174;SDS011;2101;48.290;14.382;2022-12-07T07:23:37;25.50;;;7.60;;
4174;SDS011;2101;48.290;14.382;2022-12-07T07:26:03;17.83;;;5.73;;
4174;SDS011;2101;48.290;14.382;2022-12-07T07:28:29;24.43;;;6.93;;
4174;SDS011;2101;48.290;14.382;2022-12-07T07:30:55;21.20;;;6.30;;
4174;SDS011;2101;48.290;14.382;2022-12-07T07:33:21;22.10;;;6.80;;
4174;SDS011;2101;48.290;14.382;2022-12-07T07:35:48;22.67;;;7.00;;
4174;SDS011;2101;48.290;14.382;2022-12-07T07:38:14;26.83;;;8.20;;
4174;SDS011;2101;48.290;14.382;2022-12-07T07:40:40;22.17;;;7.20;;
4174;SDS011;2101;48.290;14.382;2022-12-07T07:43:06;22.80;;;6.97;;
4174;SDS011;2101;48.290;14.382;2022-12-07T07:45:32;22.37;;;6.93;;
4174;SDS011;2101;48.290;14.382;2022-12-07T07:47:58;23.97;;;8.60;;
4174;SDS011;2101;48.290;14.382;2022-12-07T07:50:25;25.97;;;8.70;;
4174;SDS011;2101;48.290;14.382;2022-12-07T07:52:51;24.90;;;8.43;;
4174;SDS011;2101;48.290;14.382;2022-12-07T07:55:17;23.97;;;7.77;;
4174;SDS011;2101;48.290;14.382;2022-12-07T07:57:43;20.70;;;6.93;;
4174;SDS011;2101;48.290;14.382;2022-12-07T08:00:14;23.90;;;7.57;;
4174;SDS011;2101;48.290;14.382;2022-12-07T08:02:42;24.03;;;6.33;;
4174;SDS011;2101;48.290;14.382;2022-12-07T08:05:09;22.57;;;7.20;;
4174;SDS011;2101;48.290;14.382;2022-12-07T08:07:36;30.07;;;7.70;;
4174;SDS011;2101;48.290;14.382;2022-12-07T08:10:03;22.40;;;6.10;;
4174;SDS011;2101;48.290;14.382;2022-12-07T08:12:29;21.77;;;6.00;;
4174;SDS011;2101;48.290;14.382;2022-12-07T08:14:55;22.97;;;6.90;;
4174;SDS011;2101;48.290;14.382;2022-12-07T08:17:21;24.67;;;7.47;;
4174;SDS011;2101;48.290;14.382;2022-12-07T08:19:47;20.70;;;6.63;;
4174;SDS011;2101;48.290;14.382;2022-12-07T08:22:13;25.73;;;7.90;;
4174;SDS011;2101;48.290;14.382;2022-12-07T08:24:39;23.67;;;7.23;;
4174;SDS011;2101;48.290;14.382;2022-12-07T08:27:05;26.30;;;6.33;;
4174;SDS011;2101;48.290;14.382;2022-12-07T08:29:31;22.00;;;6.83;;
4174;SDS011;2101;48.290;14.382;2022-12-07T08:31:57;18.90;;;5.70;;
4174;SDS011;2101;48.290;14.382;2022-12-07T08:34:25;22.33;;;6.47;;
4174;SDS011;2101;48.290;14.382;2022-12-07T08:36:51;23.00;;;6.77;;
4174;SDS011;2101;48.290;14.382;2022-12-07T08:39:17;23.37;;;6.07;;
4174;SDS011;2101;48.290;14.382;2022-12-07T08:41:43;22.33;;;5.37;;
4174;SDS011;2101;48.290;14.382;2022-12-07T08:44:09;21.33;;;5.83;;
4174;SDS011;2101;48.290;14.382;2022-12-07T08:49:09;16.83;;;5.10;;
4174;SDS011;2101;48.290;14.382;2022-12-07T08:51:37;18.70;;;4.93;;
4174;SDS011;2101;48.290;14.382;2022-12-07T08:54:04;19.30;;;5.70;;
4174;SDS011;2101;48.290;14.382;2022-12-07T08:56:31;19.30;;;5.80;;
4174;SDS011;2101;48.290;14.382;2022-12-07T08:58:57;18.37;;;5.13;;
4174;SDS011;2101;48.290;14.382;2022-12-07T09:01:23;23.57;;;6.07;;
4174;SDS011;2101;48.290;14.382;2022-12-07T09:03:50;17.33;;;4.80;;
4174;SDS011;2101;48.290;14.382;2022-12-07T09:06:16;19.13;;;5.30;;
4174;SDS011;2101;48.290;14.382;2022-12-07T09:08:43;18.20;;;4.90;;
4174;SDS011;2101;48.290;14.382;2022-12-07T09:11:09;17.07;;;4.40;;
4174;SDS011;2101;48.290;14.382;2022-12-07T09:13:35;18.30;;;5.00;;
4174;SDS011;2101;48.290;14.382;2022-12-07T09:16:01;19.23;;;5.50;;
4174;SDS011;2101;48.290;14.382;2022-12-07T09:18:27;16.47;;;4.50;;
4174;SDS011;2101;48.290;14.382;2022-12-07T09:20:54;17.23;;;4.60;;
4174;SDS011;2101;48.290;14.382;2022-12-07T09:23:20;20.90;;;5.37;;
4174;SDS011;2101;48.290;14.382;2022-12-07T09:25:46;19.13;;;5.10;;
4174;SDS011;2101;48.290;14.382;2022-12-07T09:28:12;18.30;;;4.63;;
4174;SDS011;2101;48.290;14.382;2022-12-07T09:30:38;18.10;;;4.70;;
4174;SDS011;2101;48.290;14.382;2022-12-07T09:33:04;16.77;;;4.80;;
4174;SDS011;2101;48.290;14.382;2022-12-07T09:35:30;19.37;;;5.20;;
4174;SDS011;2101;48.290;14.382;2022-12-07T09:37:56;16.77;;;4.57;;
4174;SDS011;2101;48.290;14.382;2022-12-07T09:40:22;18.53;;;5.33;;
4174;SDS011;2101;48.290;14.382;2022-12-07T09:42:53;18.63;;;4.93;;
4174;SDS011;2101;48.290;14.382;2022-12-07T09:45:26;18.27;;;4.77;;
4174;SDS011;2101;48.290;14.382;2022-12-07T09:47:53;18.40;;;5.10;;
4174;SDS011;2101;48.290;14.382;2022-12-07T09:50:23;17.40;;;4.87;;
4174;SDS011;2101;48.290;14.382;2022-12-07T09:52:50;17.80;;;4.80;;
4174;SDS011;2101;48.290;14.382;2022-12-07T09:55:19;19.73;;;5.80;;
4174;SDS011;2101;48.290;14.382;2022-12-07T09:57:45;17.67;;;5.00;;
4174;SDS011;2101;48.290;14.382;2022-12-07T10:00:13;17.23;;;5.13;;
4174;SDS011;2101;48.290;14.382;2022-12-07T10:02:40;17.30;;;4.53;;
4174;SDS011;2101;48.290;14.382;2022-12-07T10:05:09;16.80;;;4.67;;
4174;SDS011;2101;48.290;14.382;2022-12-07T10:07:36;16.93;;;4.93;;
4174;SDS011;2101;48.290;14.382;2022-12-07T10:10:14;18.60;;;5.70;;
4174;SDS011;2101;48.290;14.382;2022-12-07T10:12:54;17.13;;;4.60;;
4174;SDS011;2101;48.290;14.382;2022-12-07T10:15:21;23.73;;;5.17;;
4174;SDS011;2101;48.290;14.382;2022-12-07T10:17:48;17.80;;;5.07;;
4174;SDS011;2101;48.290;14.382;2022-12-07T10:20:16;16.97;;;4.80;;
4174;SDS011;2101;48.290;14.382;2022-12-07T10:25:37;17.80;;;4.90;;
4174;SDS011;2101;48.290;14.382;2022-12-07T10:33:31;23.67;;;6.23;;
4174;SDS011;2101;48.290;14.382;2022-12-07T10:35:58;21.77;;;6.27;;
4174;SDS011;2101;48.290;14.382;2022-12-07T10:38:25;19.97;;;5.67;;
4174;SDS011;2101;48.290;14.382;2022-12-07T10:41:09;17.17;;;5.33;;
4174;SDS011;2101;48.290;14.382;2022-12-07T10:43:35;20.03;;;5.30;;
4174;SDS011;2101;48.290;14.382;2022-12-07T10:46:51;18.30;;;5.10;;
4174;SDS011;2101;48.290;14.382;2022-12-07T10:52:01;19.37;;;5.73;;
4174;SDS011;2101;48.290;14.382;2022-12-07T10:54:14;17.10;;;4.53;;
4174;SDS011;2101;48.290;14.382;2022-12-07T10:59:20;17.00;;;4.70;;
4174;SDS011;2101;48.290;14.382;2022-12-07T11:01:59;16.13;;;4.93;;
4174;SDS011;2101;48.290;14.382;2022-12-07T11:14:32;18.90;;;5.47;;
4174;SDS011;2101;48.290;14.382;2022-12-07T11:17:04;19.90;;;5.80;;
4174;SDS011;2101;48.290;14.382;2022-12-07T11:25:00;17.30;;;4.57;;
4174;SDS011;2101;48.290;14.382;2022-12-07T11:27:37;21.23;;;5.97;;
4174;SDS011;2101;48.290;14.382;2022-12-07T11:30:13;17.17;;;4.53;;
4174;SDS011;2101;48.290;14.382;2022-12-07T11:35:39;18.03;;;5.13;;
4174;SDS011;2101;48.290;14.382;2022-12-07T11:38:15;19.00;;;5.60;;
4174;SDS011;2101;48.290;14.382;2022-12-07T11:40:43;15.83;;;3.90;;
4174;SDS011;2101;48.290;14.382;2022-12-07T11:43:28;15.97;;;3.77;;
4174;SDS011;2101;48.290;14.382;2022-12-07T11:48:33;15.50;;;3.73;;
4174;SDS011;2101;48.290;14.382;2022-12-07T11:51:00;14.37;;;3.10;;
4174;SDS011;2101;48.290;14.382;2022-12-07T12:03:45;14.73;;;3.20;;
4174;SDS011;2101;48.290;14.382;2022-12-07T12:06:12;15.77;;;3.50;;
4174;SDS011;2101;48.290;14.382;2022-12-07T12:08:39;15.77;;;3.93;;
4174;SDS011;2101;48.290;14.382;2022-12-07T12:16:35;15.13;;;3.40;;
4174;SDS011;2101;48.290;14.382;2022-12-07T12:21:30;15.67;;;4.30;;
4174;SDS011;2101;48.290;14.382;2022-12-07T12:26:24;16.10;;;4.40;;
4174;SDS011;2101;48.290;14.382;2022-12-07T12:28:56;20.53;;;5.23;;
4174;SDS011;2101;48.290;14.382;2022-12-07T12:33:54;16.63;;;4.67;;
4174;SDS011;2101;48.290;14.382;2022-12-07T12:36:30;16.60;;;4.33;;
4174;SDS011;2101;48.290;14.382;2022-12-07T12:51:45;15.10;;;3.73;;
4174;SDS011;2101;48.290;14.382;2022-12-07T12:59:34;16.87;;;3.80;;
4174;SDS011;2101;48.290;14.382;2022-12-07T13:07:13;18.77;;;4.10;;
4174;SDS011;2101;48.290;14.382;2022-12-07T13:09:59;19.77;;;5.10;;
4174;SDS011;2101;48.290;14.382;2022-12-07T13:12:27;17.57;;;4.07;;
4174;SDS011;2101;48.290;14.382;2022-12-07T13:24:56;19.97;;;5.00;;
4174;SDS011;2101;48.290;14.382;2022-12-07T13:27:22;17.33;;;3.80;;
4174;SDS011;2101;48.290;14.382;2022-12-07T13:29:50;17.33;;;4.60;;
4174;SDS011;2101;48.290;14.382;2022-12-07T13:32:27;14.43;;;3.43;;
4174;SDS011;2101;48.290;14.382;2022-12-07T13:34:53;14.20;;;3.60;;
4174;SDS011;2101;48.290;14.382;2022-12-07T13:37:29;15.73;;;3.90;;
4174;SDS011;2101;48.290;14.382;2022-12-07T13:39:57;15.20;;;3.07;;
4174;SDS011;2101;48.290;14.382;2022-12-07T13:42:25;15.43;;;3.07;;
4174;SDS011;2101;48.290;14.382;2022-12-07T13:44:52;15.73;;;3.80;;
4174;SDS011;2101;48.290;14.382;2022-12-07T13:47:32;14.70;;;3.20;;
4174;SDS011;2101;48.290;14.382;2022-12-07T13:50:00;15.30;;;3.63;;
4174;SDS011;2101;48.290;14.382;2022-12-07T13:52:30;14.87;;;3.87;;
4174;SDS011;2101;48.290;14.382;2022-12-07T13:57:24;29.90;;;3.90;;
4174;SDS011;2101;48.290;14.382;2022-12-07T13:59:50;16.40;;;3.67;;
4174;SDS011;2101;48.290;14.382;2022-12-07T14:02:21;16.10;;;3.50;;
4174;SDS011;2101;48.290;14.382;2022-12-07T14:04:48;15.03;;;3.37;;
4174;SDS011;2101;48.290;14.382;2022-12-07T14:07:23;15.83;;;3.90;;
4174;SDS011;2101;48.290;14.382;2022-12-07T14:09:59;17.87;;;4.00;;
4174;SDS011;2101;48.290;14.382;2022-12-07T14:12:26;16.80;;;4.50;;
4174;SDS011;2101;48.290;14.382;2022-12-07T14:14:52;16.37;;;4.27;;
4174;SDS011;2101;48.290;14.382;2022-12-07T14:17:20;19.90;;;4.53;;
4174;SDS011;2101;48.290;14.382;2022-12-07T14:19:53;14.37;;;3.33;;
4174;SDS011;2101;48.290;14.382;2022-12-07T14:22:36;17.37;;;3.87;;
4174;SDS011;2101;48.290;14.382;2022-12-07T14:25:18;23.70;;;4.93;;
4174;SDS011;2101;48.290;14.382;2022-12-07T14:27:49;15.40;;;3.73;;
4174;SDS011;2101;48.290;14.382;2022-12-07T14:30:16;15.40;;;3.90;;
4174;SDS011;2101;48.290;14.382;2022-12-07T14:32:43;17.50;;;4.67;;
4174;SDS011;2101;48.290;14.382;2022-12-07T14:35:14;17.27;;;4.60;;
4174;SDS011;2101;48.290;14.382;2022-12-07T14:37:40;17.10;;;4.40;;
4174;SDS011;2101;48.290;14.382;2022-12-07T14:40:07;15.73;;;3.87;;
4174;SDS011;2101;48.290;14.382;2022-12-07T14:42:33;17.90;;;4.50;;
4174;SDS011;2101;48.290;14.382;2022-12-07T14:45:00;15.77;;;3.80;;
4174;SDS011;2101;48.290;14.382;2022-12-07T14:47:26;19.37;;;5.00;;
4174;SDS011;2101;48.290;14.382;2022-12-07T14:49:52;19.67;;;5.00;;
4174;SDS011;2101;48.290;14.382;2022-12-07T14:52:23;17.90;;;4.57;;
4174;SDS011;2101;48.290;14.382;2022-12-07T14:54:50;17.77;;;4.13;;
4174;SDS011;2101;48.290;14.382;2022-12-07T14:57:16;16.77;;;4.60;;
4174;SDS011;2101;48.290;14.382;2022-12-07T14:59:42;18.00;;;4.93;;
4174;SDS011;2101;48.290;14.382;2022-12-07T15:02:09;17.77;;;4.63;;
4174;SDS011;2101;48.290;14.382;2022-12-07T15:04:36;15.77;;;3.63;;
4174;SDS011;2101;48.290;14.382;2022-12-07T15:07:03;20.20;;;5.17;;
4174;SDS011;2101;48.290;14.382;2022-12-07T15:09:29;19.93;;;5.33;;
4174;SDS011;2101;48.290;14.382;2022-12-07T15:11:56;22.60;;;6.00;;
4174;SDS011;2101;48.290;14.382;2022-12-07T15:14:22;25.03;;;6.73;;
4174;SDS011;2101;48.290;14.382;2022-12-07T15:16:48;19.33;;;5.03;;
4174;SDS011;2101;48.290;14.382;2022-12-07T15:19:18;18.70;;;5.60;;
4174;SDS011;2101;48.290;14.382;2022-12-07T15:21:46;22.07;;;5.73;;
4174;SDS011;2101;48.290;14.382;2022-12-07T15:24:12;19.03;;;5.23;;
4174;SDS011;2101;48.290;14.382;2022-12-07T15:26:38;18.93;;;5.00;;
4174;SDS011;2101;48.290;14.382;2022-12-07T15:29:05;18.97;;;5.13;;
4174;SDS011;2101;48.290;14.382;2022-12-07T15:31:31;24.63;;;5.70;;
4174;SDS011;2101;48.290;14.382;2022-12-07T15:33:57;21.63;;;5.77;;
4174;SDS011;2101;48.290;14.382;2022-12-07T15:36:25;25.93;;;6.80;;
4174;SDS011;2101;48.290;14.382;2022-12-07T15:38:52;22.70;;;6.40;;
4174;SDS011;2101;48.290;14.382;2022-12-07T15:41:18;18.30;;;4.70;;
4174;SDS011;2101;48.290;14.382;2022-12-07T15:43:44;22.83;;;5.83;;
4174;SDS011;2101;48.290;14.382;2022-12-07T15:46:29;29.30;;;6.17;;
4174;SDS011;2101;48.290;14.382;2022-12-07T15:48:56;23.63;;;6.67;;
4174;SDS011;2101;48.290;14.382;2022-12-07T15:51:22;22.37;;;6.33;;
4174;SDS011;2101;48.290;14.382;2022-12-07T15:53:48;19.80;;;5.00;;
4174;SDS011;2101;48.290;14.382;2022-12-07T15:56:14;18.93;;;5.17;;
4174;SDS011;2101;48.290;14.382;2022-12-07T15:58:40;24.70;;;6.53;;
4174;SDS011;2101;48.290;14.382;2022-12-07T16:01:10;20.20;;;5.50;;
4174;SDS011;2101;48.290;14.382;2022-12-07T16:03:36;27.83;;;6.33;;
4174;SDS011;2101;48.290;14.382;2022-12-07T16:06:03;22.23;;;5.70;;
4174;SDS011;2101;48.290;14.382;2022-12-07T16:08:32;20.47;;;4.80;;
4174;SDS011;2101;48.290;14.382;2022-12-07T16:11:04;19.53;;;4.60;;
4174;SDS011;2101;48.290;14.382;2022-12-07T16:13:34;18.97;;;5.47;;
4174;SDS011;2101;48.290;14.382;2022-12-07T16:16:08;21.30;;;5.37;;
4174;SDS011;2101;48.290;14.382;2022-12-07T16:18:36;19.47;;;5.37;;
4174;SDS011;2101;48.290;14.382;2022-12-07T16:21:03;20.17;;;5.87;;
4174;SDS011;2101;48.290;14.382;2022-12-07T16:23:30;18.90;;;4.97;;
4174;SDS011;2101;48.290;14.382;2022-12-07T16:26:08;21.07;;;5.40;;
4174;SDS011;2101;48.290;14.382;2022-12-07T16:33:47;21.07;;;5.13;;
4174;SDS011;2101;48.290;14.382;2022-12-07T16:36:14;22.00;;;6.00;;
4174;SDS011;2101;48.290;14.382;2022-12-07T16:38:41;20.53;;;4.67;;
4174;SDS011;2101;48.290;14.382;2022-12-07T16:43:45;20.40;;;5.50;;
4174;SDS011;2101;48.290;14.382;2022-12-07T16:46:11;19.87;;;5.17;;
4174;SDS011;2101;48.290;14.382;2022-12-07T16:48:38;20.37;;;6.10;;
4174;SDS011;2101;48.290;14.382;2022-12-07T16:51:07;26.70;;;5.67;;
4174;SDS011;2101;48.290;14.382;2022-12-07T16:53:35;20.83;;;5.20;;
4174;SDS011;2101;48.290;14.382;2022-12-07T16:56:02;20.70;;;5.27;;
4174;SDS011;2101;48.290;14.382;2022-12-07T17:01:12;22.50;;;4.63;;
4174;SDS011;2101;48.290;14.382;2022-12-07T17:06:11;19.27;;;5.30;;
4174;SDS011;2101;48.290;14.382;2022-12-07T17:08:38;25.67;;;6.43;;
4174;SDS011;2101;48.290;14.382;2022-12-07T17:11:09;20.93;;;5.50;;
4174;SDS011;2101;48.290;14.382;2022-12-07T17:13:35;19.97;;;4.90;;
4174;SDS011;2101;48.290;14.382;2022-12-07T17:16:20;18.30;;;4.83;;
4174;SDS011;2101;48.290;14.382;2022-12-07T17:18:46;19.10;;;5.23;;
4174;SDS011;2101;48.290;14.382;2022-12-07T17:21:13;21.20;;;5.60;;
4174;SDS011;2101;48.290;14.382;2022-12-07T17:23:39;20.00;;;5.53;;
4174;SDS011;2101;48.290;14.382;2022-12-07T17:26:11;17.40;;;4.63;;
4174;SDS011;2101;48.290;14.382;2022-12-07T17:28:38;23.70;;;5.63;;
4174;SDS011;2101;48.290;14.382;2022-12-07T17:31:08;23.03;;;5.67;;
4174;SDS011;2101;48.290;14.382;2022-12-07T17:56:57;25.97;;;5.13;;
4174;SDS011;2101;48.290;14.382;2022-12-07T18:02:01;22.17;;;5.47;;
4174;SDS011;2101;48.290;14.382;2022-12-07T18:04:27;18.40;;;5.30;;
4174;SDS011;2101;48.290;14.382;2022-12-07T18:06:55;21.17;;;6.40;;
4174;SDS011;2101;48.290;14.382;2022-12-07T18:09:21;21.50;;;5.50;;
4174;SDS011;2101;48.290;14.382;2022-12-07T18:11:47;21.47;;;5.83;;
4174;SDS011;2101;48.290;14.382;2022-12-07T18:14:14;29.53;;;7.03;;
4174;SDS011;2101;48.290;14.382;2022-12-07T18:16:41;28.50;;;6.50;;
4174;SDS011;2101;48.290;14.382;2022-12-07T18:19:07;23.80;;;5.17;;
4174;SDS011;2101;48.290;14.382;2022-12-07T18:21:33;28.67;;;6.80;;
4174;SDS011;2101;48.290;14.382;2022-12-07T18:31:47;22.57;;;6.10;;
4174;SDS011;2101;48.290;14.382;2022-12-07T18:34:14;22.03;;;6.10;;
4174;SDS011;2101;48.290;14.382;2022-12-07T18:36:41;22.50;;;6.60;;
4174;SDS011;2101;48.290;14.382;2022-12-07T18:39:09;30.97;;;5.57;;
4174;SDS011;2101;48.290;14.382;2022-12-07T18:41:36;20.03;;;5.27;;
4174;SDS011;2101;48.290;14.382;2022-12-07T18:44:03;22.70;;;6.30;;
4174;SDS011;2101;48.290;14.382;2022-12-07T18:46:30;22.77;;;6.60;;
4174;SDS011;2101;48.290;14.382;2022-12-07T18:48:56;25.17;;;5.67;;
4174;SDS011;2101;48.290;14.382;2022-12-07T18:51:22;21.90;;;6.77;;
4174;SDS011;2101;48.290;14.382;2022-12-07T18:53:48;25.50;;;7.03;;
4174;SDS011;2101;48.290;14.382;2022-12-07T18:56:19;26.47;;;7.27;;
4174;SDS011;2101;48.290;14.382;2022-12-07T18:58:52;34.63;;;7.50;;
4174;SDS011;2101;48.290;14.382;2022-12-07T19:01:38;26.77;;;7.20;;
4174;SDS011;2101;48.290;14.382;2022-12-07T19:04:04;27.90;;;7.70;;
4174;SDS011;2101;48.290;14.382;2022-12-07T19:06:30;26.87;;;7.60;;
4174;SDS011;2101;48.290;14.382;2022-12-07T19:09:00;24.17;;;7.00;;
4174;SDS011;2101;48.290;14.382;2022-12-07T19:11:27;23.40;;;6.83;;
4174;SDS011;2101;48.290;14.382;2022-12-07T19:14:12;23.97;;;7.00;;
4174;SDS011;2101;48.290;14.382;2022-12-07T19:16:40;25.73;;;7.27;;
4174;SDS011;2101;48.290;14.382;2022-12-07T19:19:06;20.20;;;6.03;;
4174;SDS011;2101;48.290;14.382;2022-12-07T19:21:33;22.47;;;6.47;;
4174;SDS011;2101;48.290;14.382;2022-12-07T19:24:03;19.40;;;5.07;;
4174;SDS011;2101;48.290;14.382;2022-12-07T19:26:29;20.57;;;5.27;;
4174;SDS011;2101;48.290;14.382;2022-12-07T19:28:55;20.77;;;6.03;;
4174;SDS011;2101;48.290;14.382;2022-12-07T19:31:21;18.73;;;5.20;;
4174;SDS011;2101;48.290;14.382;2022-12-07T19:33:48;20.03;;;5.30;;
4174;SDS011;2101;48.290;14.382;2022-12-07T19:36:14;19.80;;;5.13;;
4174;SDS011;2101;48.290;14.382;2022-12-07T19:38:40;19.80;;;5.30;;
4174;SDS011;2101;48.290;14.382;2022-12-07T19:41:07;21.07;;;6.00;;
4174;SDS011;2101;48.290;14.382;2022-12-07T19:43:56;21.17;;;5.70;;
4174;SDS011;2101;48.290;14.382;2022-12-07T19:46:22;21.10;;;6.00;;
4174;SDS011;2101;48.290;14.382;2022-12-07T19:48:48;19.90;;;5.10;;
4174;SDS011;2101;48.290;14.382;2022-12-07T19:51:15;20.67;;;5.63;;
4174;SDS011;2101;48.290;14.382;2022-12-07T19:53:41;20.17;;;5.67;;
4174;SDS011;2101;48.290;14.382;2022-12-07T19:56:07;24.13;;;6.30;;
4174;SDS011;2101;48.290;14.382;2022-12-07T19:58:36;21.43;;;5.93;;
4174;SDS011;2101;48.290;14.382;2022-12-07T20:01:03;21.17;;;6.17;;
4174;SDS011;2101;48.290;14.382;2022-12-07T20:03:29;23.33;;;5.67;;
4174;SDS011;2101;48.290;14.382;2022-12-07T20:05:55;23.00;;;5.13;;
4174;SDS011;2101;48.290;14.382;2022-12-07T20:08:21;22.40;;;5.30;;
4174;SDS011;2101;48.290;14.382;2022-12-07T20:10:48;18.73;;;5.37;;
4174;SDS011;2101;48.290;14.382;2022-12-07T20:13:18;19.33;;;5.33;;
4174;SDS011;2101;48.290;14.382;2022-12-07T20:15:56;20.93;;;4.83;;
4174;SDS011;2101;48.290;14.382;2022-12-07T20:18:22;23.20;;;5.50;;
4174;SDS011;2101;48.290;14.382;2022-12-07T20:20:54;18.83;;;5.20;;
4174;SDS011;2101;48.290;14.382;2022-12-07T20:23:21;17.70;;;4.90;;
4174;SDS011;2101;48.290;14.382;2022-12-07T20:25:47;19.30;;;5.50;;
4174;SDS011;2101;48.290;14.382;2022-12-07T20:28:13;17.40;;;5.00;;
4174;SDS011;2101;48.290;14.382;2022-12-07T20:30:46;22.90;;;6.20;;
4174;SDS011;2101;48.290;14.382;2022-12-07T20:33:13;20.43;;;5.77;;
4174;SDS011;2101;48.290;14.382;2022-12-07T20:35:39;20.17;;;5.37;;
4174;SDS011;2101;48.290;14.382;2022-12-07T20:38:05;24.97;;;6.67;;
4174;SDS011;2101;48.290;14.382;2022-12-07T20:40:31;20.40;;;6.00;;
4174;SDS011;2101;48.290;14.382;2022-12-07T20:42:57;21.03;;;6.10;;
4174;SDS011;2101;48.290;14.382;2022-12-07T20:45:24;26.80;;;5.60;;
4174;SDS011;2101;48.290;14.382;2022-12-07T20:47:50;19.20;;;5.43;;
4174;SDS011;2101;48.290;14.382;2022-12-07T20:50:16;25.23;;;6.27;;
4174;SDS011;2101;48.290;14.382;2022-12-07T20:52:42;19.30;;;5.20;;
4174;SDS011;2101;48.290;14.382;2022-12-07T20:55:08;19.17;;;5.37;;
4174;SDS011;2101;48.290;14.382;2022-12-07T20:57:35;19.87;;;5.40;;
4174;SDS011;2101;48.290;14.382;2022-12-07T21:00:01;18.57;;;5.80;;
4174;SDS011;2101;48.290;14.382;2022-12-07T21:02:30;17.00;;;5.20;;
4174;SDS011;2101;48.290;14.382;2022-12-07T21:04:57;22.87;;;5.20;;
4174;SDS011;2101;48.290;14.382;2022-12-07T21:07:23;21.23;;;5.73;;
4174;SDS011;2101;48.290;14.382;2022-12-07T21:09:49;21.53;;;5.47;;
4174;SDS011;2101;48.290;14.382;2022-12-07T21:12:16;19.83;;;5.20;;
4174;SDS011;2101;48.290;14.382;2022-12-07T21:14:42;22.17;;;5.87;;
4174;SDS011;2101;48.290;14.382;2022-12-07T21:17:09;18.80;;;4.60;;
4174;SDS011;2101;48.290;14.382;2022-12-07T21:19:35;20.80;;;5.63;;
4174;SDS011;2101;48.290;14.382;2022-12-07T21:22:02;20.47;;;5.43;;
4174;SDS011;2101;48.290;14.382;2022-12-07T21:24:29;19.73;;;5.87;;
4174;SDS011;2101;48.290;14.382;2022-12-07T21:26:55;22.07;;;5.73;;
4174;SDS011;2101;48.290;14.382;2022-12-07T21:29:22;19.73;;;5.33;;
4174;SDS011;2101;48.290;14.382;2022-12-07T21:31:48;19.90;;;5.40;;
4174;SDS011;2101;48.290;14.382;2022-12-07T21:34:14;21.67;;;5.30;;
4174;SDS011;2101;48.290;14.382;2022-12-07T21:36:40;20.33;;;5.53;;
4174;SDS011;2101;48.290;14.382;2022-12-07T21:39:06;20.10;;;4.80;;
4174;SDS011;2101;48.290;14.382;2022-12-07T21:41:33;24.03;;;6.20;;
4174;SDS011;2101;48.290;14.382;2022-12-07T21:44:00;27.60;;;6.10;;
4174;SDS011;2101;48.290;14.382;2022-12-07T21:46:27;21.07;;;6.40;;
4174;SDS011;2101;48.290;14.382;2022-12-07T21:48:57;23.50;;;5.93;;
4174;SDS011;2101;48.290;14.382;2022-12-07T21:51:25;20.50;;;5.50;;
4174;SDS011;2101;48.290;14.382;2022-12-07T21:53:51;18.87;;;4.93;;
4174;SDS011;2101;48.290;14.382;2022-12-07T21:56:21;19.23;;;5.40;;
4174;SDS011;2101;48.290;14.382;2022-12-07T21:58:47;23.67;;;6.60;;
4174;SDS011;2101;48.290;14.382;2022-12-07T22:01:15;20.27;;;6.03;;
4174;SDS011;2101;48.290;14.382;2022-12-07T22:03:41;22.03;;;5.90;;
4174;SDS011;2101;48.290;14.382;2022-12-07T22:06:08;21.13;;;5.60;;
4174;SDS011;2101;48.290;14.382;2022-12-07T22:08:34;28.77;;;6.30;;
4174;SDS011;2101;48.290;14.382;2022-12-07T22:11:01;19.70;;;5.80;;
4174;SDS011;2101;48.290;14.382;2022-12-07T22:13:29;18.83;;;5.13;;
4174;SDS011;2101;48.290;14.382;2022-12-07T22:16:15;24.17;;;6.93;;
4174;SDS011;2101;48.290;14.382;2022-12-07T22:18:41;23.33;;;6.73;;
4174;SDS011;2101;48.290;14.382;2022-12-07T22:21:07;30.80;;;7.57;;
4174;SDS011;2101;48.290;14.382;2022-12-07T22:23:33;21.27;;;6.00;;
4174;SDS011;2101;48.290;14.382;2022-12-07T22:26:03;25.23;;;7.47;;
4174;SDS011;2101;48.290;14.382;2022-12-07T22:28:29;24.03;;;6.47;;
4174;SDS011;2101;48.290;14.382;2022-12-07T22:31:00;24.67;;;6.70;;
4174;SDS011;2101;48.290;14.382;2022-12-07T22:33:26;21.17;;;6.03;;
4174;SDS011;2101;48.290;14.382;2022-12-07T22:35:52;22.60;;;6.50;;
4174;SDS011;2101;48.290;14.382;2022-12-07T22:38:19;18.50;;;5.60;;
4174;SDS011;2101;48.290;14.382;2022-12-07T22:40:45;21.37;;;6.30;;